createdAt,value
2018-03-17T00:01:33.616Z,4.83
2018-03-17T00:03:59.545Z,5.50
2018-03-17T00:06:25.513Z,7.37
2018-03-17T00:08:51.373Z,5.87
2018-03-17T00:11:17.244Z,6.30
2018-03-17T00:13:43.445Z,6.13
2018-03-17T00:16:09.390Z,5.23
2018-03-17T00:18:35.256Z,7.50
2018-03-17T00:21:01.160Z,5.60
2018-03-17T00:23:27.013Z,6.97
2018-03-17T00:25:52.874Z,6.50
2018-03-17T00:28:18.877Z,5.40
2018-03-17T00:30:44.734Z,4.47
2018-03-17T00:33:10.582Z,7.60
2018-03-17T00:35:36.496Z,6.43
2018-03-17T00:38:02.345Z,6.17
2018-03-17T00:40:28.276Z,5.97
2018-03-17T00:42:54.173Z,7.53
2018-03-17T00:45:20.021Z,5.43
2018-03-17T00:47:45.882Z,5.70
2018-03-17T00:50:11.765Z,7.50
2018-03-17T00:52:37.718Z,4.83
2018-03-17T00:55:03.592Z,4.83
2018-03-17T00:57:29.512Z,7.03
2018-03-17T00:59:55.390Z,6.10
2018-03-17T01:02:21.249Z,5.83
2018-03-17T01:04:47.268Z,6.57
2018-03-17T01:07:13.112Z,4.73
2018-03-17T01:09:38.976Z,5.53
2018-03-17T01:12:04.893Z,6.27
2018-03-17T01:14:30.759Z,4.87
2018-03-17T01:16:56.742Z,7.17
2018-03-17T01:19:22.649Z,6.27
2018-03-17T01:21:48.492Z,4.73
2018-03-17T01:24:14.393Z,4.90
2018-03-17T01:26:40.301Z,5.67
2018-03-17T01:29:06.273Z,5.53
2018-03-17T01:31:32.141Z,6.47
2018-03-17T01:33:58.032Z,9.07
2018-03-17T01:36:23.946Z,4.47
2018-03-17T01:38:49.787Z,5.13
2018-03-17T01:41:15.789Z,4.87
2018-03-17T01:43:41.637Z,4.63
2018-03-17T01:46:07.492Z,4.93
2018-03-17T01:48:33.439Z,6.67
2018-03-17T01:50:59.284Z,6.13
2018-03-17T01:53:25.246Z,4.87
2018-03-17T01:55:51.149Z,4.27
2018-03-17T01:58:16.985Z,4.77
2018-03-17T02:00:42.897Z,4.90
2018-03-17T02:03:08.787Z,4.27
2018-03-17T02:05:34.808Z,8.27
2018-03-17T02:08:00.664Z,8.15
2018-03-17T02:10:26.570Z,6.07
2018-03-17T02:12:52.473Z,4.33
2018-03-17T02:15:18.312Z,6.00
2018-03-17T02:17:44.333Z,7.27
2018-03-17T02:20:10.201Z,6.17
2018-03-17T02:22:36.048Z,4.50
2018-03-17T02:25:02.005Z,6.83
2018-03-17T02:27:27.844Z,6.50
2018-03-17T02:29:53.790Z,5.97
2018-03-17T02:32:19.692Z,9.23
2018-03-17T02:34:45.541Z,5.57
2018-03-17T02:37:11.462Z,7.20
2018-03-17T02:39:37.372Z,6.57
2018-03-17T02:42:03.325Z,11.20
2018-03-17T02:44:29.170Z,5.90
2018-03-17T02:46:55.076Z,6.57
2018-03-17T02:49:20.991Z,6.70
2018-03-17T02:51:46.837Z,6.50
2018-03-17T02:54:12.830Z,6.37
2018-03-17T02:56:38.693Z,5.82
2018-03-17T02:59:04.541Z,8.43
2018-03-17T03:01:30.484Z,7.30
2018-03-17T03:03:56.340Z,6.23
2018-03-17T03:06:22.278Z,6.20
2018-03-17T03:08:48.192Z,7.80
2018-03-17T03:11:14.101Z,5.73
2018-03-17T03:13:39.992Z,6.67
2018-03-17T03:16:05.876Z,5.30
2018-03-17T03:18:32.416Z,5.03
2018-03-17T03:20:58.282Z,5.20
2018-03-17T03:23:24.175Z,5.73
2018-03-17T03:25:50.077Z,6.00
2018-03-17T03:28:15.920Z,5.73
2018-03-17T03:30:41.901Z,6.53
2018-03-17T03:33:07.756Z,7.90
2018-03-17T03:35:33.614Z,5.67
2018-03-17T03:37:59.590Z,6.83
2018-03-17T03:40:25.518Z,6.13
2018-03-17T03:42:51.458Z,6.77
2018-03-17T03:45:17.353Z,6.63
2018-03-17T03:47:43.209Z,6.03
2018-03-17T03:50:09.146Z,4.13
2018-03-17T03:52:35.051Z,4.73
2018-03-17T03:55:00.997Z,5.13
2018-03-17T03:57:26.836Z,7.23
2018-03-17T03:59:52.728Z,5.57
2018-03-17T04:02:18.637Z,6.03
2018-03-17T04:04:44.483Z,8.10
2018-03-17T04:07:10.464Z,4.97
2018-03-17T04:09:36.332Z,5.17
2018-03-17T04:12:02.194Z,6.30
2018-03-17T04:14:28.144Z,9.07
2018-03-17T04:16:54.002Z,8.00
2018-03-17T04:19:19.949Z,6.23
2018-03-17T04:21:45.881Z,6.00
2018-03-17T04:24:11.725Z,6.33
2018-03-17T04:26:37.624Z,5.53
2018-03-17T04:29:03.528Z,4.93
2018-03-17T04:31:29.451Z,5.73
2018-03-17T04:33:55.296Z,5.80
2018-03-17T04:36:21.193Z,5.03
2018-03-17T04:38:47.093Z,5.97
2018-03-17T04:41:12.937Z,5.47
2018-03-17T04:43:38.900Z,5.57
2018-03-17T04:46:04.757Z,5.47
2018-03-17T04:48:30.646Z,3.63
2018-03-17T04:50:56.600Z,5.20
2018-03-17T04:53:22.452Z,4.80
2018-03-17T04:55:49.285Z,4.10
2018-03-17T04:58:15.176Z,5.15
2018-03-17T05:00:41.021Z,5.83
2018-03-17T05:03:06.919Z,4.90
2018-03-17T05:05:33.184Z,6.23
2018-03-17T05:07:59.142Z,5.82
2018-03-17T05:10:24.994Z,5.63
2018-03-17T05:12:50.894Z,5.67
2018-03-17T05:15:16.796Z,6.50
2018-03-17T05:17:42.649Z,5.47
2018-03-17T05:20:08.632Z,5.97
2018-03-17T05:22:34.488Z,6.10
2018-03-17T05:25:00.343Z,5.53
2018-03-17T05:27:26.285Z,5.90
2018-03-17T05:29:52.133Z,6.40
2018-03-17T05:32:18.065Z,4.43
2018-03-17T05:34:44.146Z,8.60
2018-03-17T05:37:10.005Z,6.20
2018-03-17T05:39:35.942Z,5.80
2018-03-17T05:42:01.833Z,7.77
2018-03-17T05:44:27.728Z,5.60
2018-03-17T05:46:53.581Z,5.97
2018-03-17T05:49:19.576Z,5.37
2018-03-17T05:51:45.429Z,8.43
2018-03-17T05:54:11.287Z,5.20
2018-03-17T05:56:37.188Z,6.93
2018-03-17T05:59:03.045Z,6.27
2018-03-17T06:01:28.901Z,5.33
2018-03-17T06:03:54.862Z,6.67
2018-03-17T06:06:20.725Z,5.57
2018-03-17T06:08:46.572Z,4.87
2018-03-17T06:11:12.462Z,5.50
2018-03-17T06:13:38.347Z,5.10
2018-03-17T06:16:04.210Z,6.10
2018-03-17T06:18:30.130Z,5.93
2018-03-17T06:20:55.988Z,5.93
2018-03-17T06:23:21.863Z,4.90
2018-03-17T06:25:47.772Z,5.80
2018-03-17T06:28:13.618Z,4.97
2018-03-17T06:30:39.477Z,5.83
2018-03-17T06:33:05.423Z,7.93
2018-03-17T06:35:31.300Z,6.20
2018-03-17T06:37:57.273Z,5.13
2018-03-17T06:40:23.194Z,4.77
2018-03-17T06:42:49.040Z,5.07
2018-03-17T06:45:14.997Z,5.93
2018-03-17T06:47:40.903Z,6.03
2018-03-17T06:50:06.758Z,5.33
2018-03-17T06:52:32.657Z,5.47
2018-03-17T06:54:58.541Z,7.57
2018-03-17T06:57:24.404Z,5.80
2018-03-17T06:59:50.270Z,6.03
2018-03-17T07:02:16.178Z,4.67
2018-03-17T07:04:42.034Z,8.37
2018-03-17T07:07:07.883Z,6.60
2018-03-17T07:09:33.807Z,5.07
2018-03-17T07:11:59.662Z,6.10
2018-03-17T07:14:25.512Z,6.60
2018-03-17T07:16:51.407Z,6.37
2018-03-17T07:19:17.261Z,5.77
2018-03-17T07:21:43.133Z,5.53
2018-03-17T07:24:09.049Z,6.00
2018-03-17T07:26:34.904Z,5.83
2018-03-17T07:29:00.752Z,7.03
2018-03-17T07:31:26.649Z,5.73
2018-03-17T07:33:52.603Z,5.53
2018-03-17T07:36:18.454Z,5.90
2018-03-17T07:38:44.343Z,6.47
2018-03-17T07:41:10.202Z,5.80
2018-03-17T07:43:36.048Z,6.13
2018-03-17T07:46:02.011Z,6.70
2018-03-17T07:48:27.882Z,7.17
2018-03-17T07:50:53.745Z,6.40
2018-03-17T07:53:19.633Z,5.83
2018-03-17T07:55:45.468Z,8.20
2018-03-17T07:58:11.361Z,5.60
2018-03-17T08:00:37.321Z,9.23
2018-03-17T08:03:03.184Z,5.67
2018-03-17T08:05:29.025Z,5.73
2018-03-17T08:07:54.925Z,4.83
2018-03-17T08:10:20.792Z,7.17
2018-03-17T08:12:46.653Z,6.90
2018-03-17T08:15:12.549Z,5.30
2018-03-17T08:17:38.408Z,7.20
2018-03-17T08:20:04.267Z,5.77
2018-03-17T08:22:30.144Z,7.40
2018-03-17T08:24:56.065Z,7.60
2018-03-17T08:27:21.916Z,5.37
2018-03-17T08:29:47.814Z,7.03
2018-03-17T08:32:13.687Z,8.77
2018-03-17T08:34:39.543Z,6.37
2018-03-17T08:37:05.509Z,9.57
2018-03-17T08:39:31.357Z,6.17
2018-03-17T08:41:57.225Z,7.03
2018-03-17T08:44:23.125Z,7.10
2018-03-17T08:46:49.025Z,5.20
2018-03-17T08:49:14.868Z,9.70
2018-03-17T08:51:40.762Z,7.00
2018-03-17T08:54:06.778Z,6.10
2018-03-17T08:56:32.624Z,6.23
2018-03-17T08:58:58.586Z,8.47
2018-03-17T09:01:24.398Z,8.20
2018-03-17T09:03:50.253Z,7.73
2018-03-17T09:06:16.133Z,6.53
2018-03-17T09:08:41.994Z,8.67
2018-03-17T09:11:07.837Z,6.87
2018-03-17T09:13:33.719Z,6.77
2018-03-17T09:15:59.576Z,7.43
2018-03-17T09:18:25.429Z,6.40
2018-03-17T09:20:51.336Z,7.13
2018-03-17T09:23:17.186Z,7.43
2018-03-17T09:25:43.045Z,7.90
2018-03-17T09:28:08.937Z,10.37
2018-03-17T09:30:34.797Z,6.17
2018-03-17T09:33:00.648Z,6.37
2018-03-17T09:35:26.641Z,7.00
2018-03-17T09:37:52.493Z,6.90
2018-03-17T09:40:18.341Z,7.47
2018-03-17T09:42:44.231Z,6.00
2018-03-17T09:45:10.085Z,6.87
2018-03-17T09:47:35.997Z,7.53
2018-03-17T09:50:01.888Z,6.80
2018-03-17T09:52:27.724Z,6.30
2018-03-17T09:54:53.560Z,5.60
2018-03-17T09:57:19.449Z,8.43
2018-03-17T09:59:45.293Z,7.43
2018-03-17T10:02:11.140Z,6.77
2018-03-17T10:04:37.042Z,5.33
2018-03-17T10:07:02.894Z,7.07
2018-03-17T10:09:28.750Z,6.93
2018-03-17T10:11:54.650Z,7.50
2018-03-17T10:14:20.493Z,6.27
2018-03-17T10:16:46.337Z,6.93
2018-03-17T10:19:12.254Z,5.03
2018-03-17T10:21:38.107Z,8.70
2018-03-17T10:24:03.973Z,7.27
2018-03-17T10:26:29.882Z,6.73
2018-03-17T10:28:55.733Z,6.80
2018-03-17T10:31:21.605Z,7.43
2018-03-17T10:33:47.506Z,8.73
2018-03-17T10:36:13.374Z,8.37
2018-03-17T10:38:39.229Z,8.87
2018-03-17T10:41:05.129Z,5.93
2018-03-17T10:43:31.020Z,7.37
2018-03-17T10:45:56.872Z,6.80
2018-03-17T10:48:22.837Z,6.80
2018-03-17T10:50:48.681Z,4.97
2018-03-17T10:53:14.525Z,9.30
2018-03-17T10:55:40.421Z,5.50
2018-03-17T10:58:06.290Z,7.93
2018-03-17T11:00:32.189Z,6.67
2018-03-17T11:02:58.104Z,7.33
2018-03-17T11:05:23.980Z,6.67
2018-03-17T11:07:49.870Z,8.57
2018-03-17T11:10:15.765Z,7.03
2018-03-17T11:12:42.506Z,6.67
2018-03-17T11:15:08.361Z,7.00
2018-03-17T11:17:34.257Z,6.37
2018-03-17T11:20:00.105Z,9.47
2018-03-17T11:22:25.960Z,7.50
2018-03-17T11:24:52.024Z,9.77
2018-03-17T11:27:17.891Z,7.10
2018-03-17T11:29:43.727Z,5.90
2018-03-17T11:32:09.613Z,6.27
2018-03-17T11:34:35.474Z,5.83
2018-03-17T11:37:01.317Z,6.20
2018-03-17T11:39:27.207Z,8.00
2018-03-17T11:41:53.083Z,5.73
2018-03-17T11:44:18.921Z,8.67
2018-03-17T11:46:44.837Z,5.43
2018-03-17T11:49:10.734Z,8.00
2018-03-17T11:51:36.594Z,6.57
2018-03-17T11:54:02.480Z,8.33
2018-03-17T11:56:28.346Z,6.93
2018-03-17T11:58:54.197Z,6.80
2018-03-17T12:01:20.088Z,5.97
2018-03-17T12:03:45.945Z,6.47
2018-03-17T12:06:11.797Z,8.77
2018-03-17T12:08:37.684Z,7.83
2018-03-17T12:11:03.542Z,6.80
2018-03-17T12:13:29.389Z,6.57
2018-03-17T12:15:55.285Z,8.83
2018-03-17T12:18:21.140Z,8.07
2018-03-17T12:20:46.998Z,5.90
2018-03-17T12:23:12.890Z,6.53
2018-03-17T12:25:38.746Z,5.73
2018-03-17T12:28:04.602Z,6.77
2018-03-17T12:30:30.505Z,5.30
2018-03-17T12:32:56.373Z,9.33
2018-03-17T12:35:22.282Z,7.53
2018-03-17T12:37:48.175Z,7.97
2018-03-17T12:40:14.029Z,7.00
2018-03-17T12:42:39.883Z,6.60
2018-03-17T12:45:05.772Z,7.77
2018-03-17T12:47:31.640Z,7.97
2018-03-17T12:49:57.545Z,6.50
2018-03-17T12:52:23.442Z,7.13
2018-03-17T12:54:49.301Z,6.37
2018-03-17T12:57:15.147Z,7.23
2018-03-17T12:59:41.033Z,10.23
2018-03-17T13:02:06.895Z,7.80
2018-03-17T13:04:32.760Z,7.03
2018-03-17T13:06:58.648Z,6.93
2018-03-17T13:09:24.503Z,7.10
2018-03-17T13:11:50.371Z,7.57
2018-03-17T13:14:16.361Z,7.63
2018-03-17T13:16:42.218Z,7.90
2018-03-17T13:19:20.414Z,8.03
2018-03-17T13:21:46.259Z,7.23
2018-03-17T13:24:12.116Z,8.43
2018-03-17T13:26:38.065Z,6.17
2018-03-17T13:29:03.900Z,9.93
2018-03-17T13:31:29.749Z,7.00
2018-03-17T13:33:55.642Z,8.00
2018-03-17T13:36:33.877Z,8.93
2018-03-17T13:38:59.778Z,7.07
2018-03-17T13:41:25.628Z,8.17
2018-03-17T13:43:51.497Z,8.57
2018-03-17T13:46:17.385Z,8.07
2018-03-17T13:48:43.248Z,7.53
2018-03-17T13:51:09.178Z,9.50
2018-03-17T13:53:35.086Z,10.27
2018-03-17T13:56:00.953Z,7.63
2018-03-17T13:58:26.805Z,6.20
2018-03-17T14:00:52.713Z,10.57
2018-03-17T14:03:18.560Z,10.30
2018-03-17T14:05:44.416Z,7.43
2018-03-17T14:08:10.301Z,8.60
2018-03-17T14:10:36.148Z,7.90
2018-03-17T14:13:02.009Z,6.67
2018-03-17T14:15:27.905Z,6.53
2018-03-17T14:17:53.769Z,7.93
2018-03-17T14:20:19.621Z,8.70
2018-03-17T14:22:45.518Z,8.20
2018-03-17T14:25:11.382Z,7.17
2018-03-17T14:27:37.228Z,7.47
2018-03-17T14:30:03.159Z,8.53
2018-03-17T14:32:29.016Z,7.33
2018-03-17T14:34:54.873Z,8.87
2018-03-17T14:37:20.768Z,8.23
2018-03-17T14:39:46.615Z,6.70
2018-03-17T14:42:12.478Z,8.53
2018-03-17T14:44:38.368Z,7.87
2018-03-17T14:47:04.229Z,7.50
2018-03-17T14:49:30.072Z,8.07
2018-03-17T14:51:56.011Z,8.77
2018-03-17T14:54:21.853Z,11.60
2018-03-17T14:56:47.700Z,8.47
2018-03-17T14:59:13.629Z,9.43
2018-03-17T15:01:39.489Z,9.43
2018-03-17T15:04:05.332Z,10.27
2018-03-17T15:06:31.216Z,9.27
2018-03-17T15:08:57.064Z,9.10
2018-03-17T15:11:22.925Z,8.40
2018-03-17T15:13:48.820Z,7.77
2018-03-17T15:16:14.685Z,16.30
2018-03-17T15:18:40.540Z,7.60
2018-03-17T15:21:06.463Z,10.07
2018-03-17T15:23:32.334Z,9.20
2018-03-17T15:25:58.188Z,8.67
2018-03-17T15:28:24.078Z,8.20
2018-03-17T15:30:49.949Z,7.00
2018-03-17T15:33:15.797Z,9.03
2018-03-17T15:35:41.688Z,7.93
2018-03-17T15:38:07.554Z,7.67
2018-03-17T15:40:33.416Z,8.37
2018-03-17T15:42:59.330Z,9.13
2018-03-17T15:45:25.198Z,8.07
2018-03-17T15:47:51.062Z,8.63
2018-03-17T15:50:16.948Z,8.77
2018-03-17T15:52:42.844Z,11.40
2018-03-17T15:55:08.688Z,11.73
2018-03-17T15:57:34.573Z,9.70
2018-03-17T16:00:00.447Z,7.40
2018-03-17T16:02:26.394Z,9.17
2018-03-17T16:04:52.321Z,9.83
2018-03-17T16:07:18.204Z,10.00
2018-03-17T16:09:44.068Z,8.53
2018-03-17T16:12:09.991Z,7.77
2018-03-17T16:14:35.885Z,9.33
2018-03-17T16:17:01.748Z,8.07
2018-03-17T16:19:27.663Z,8.70
2018-03-17T16:21:53.606Z,10.70
2018-03-17T16:24:19.490Z,9.70
2018-03-17T16:26:45.401Z,8.83
2018-03-17T16:29:11.279Z,9.10
2018-03-17T16:31:37.174Z,8.47
2018-03-17T16:34:03.078Z,7.33
2018-03-17T16:36:28.949Z,10.27
2018-03-17T16:38:54.822Z,8.83
2018-03-17T16:41:20.709Z,10.17
2018-03-17T16:43:47.033Z,9.13
2018-03-17T16:46:12.913Z,11.20
2018-03-17T16:48:38.839Z,7.83
2018-03-17T16:51:04.718Z,9.07
2018-03-17T16:53:30.636Z,9.50
2018-03-17T16:55:56.567Z,9.10
2018-03-17T16:58:22.763Z,11.17
2018-03-17T17:00:48.648Z,9.00
2018-03-17T17:03:14.539Z,10.40
2018-03-17T17:05:40.391Z,9.57
2018-03-17T17:08:06.225Z,12.47
2018-03-17T17:10:32.105Z,12.00
2018-03-17T17:12:57.958Z,10.87
2018-03-17T17:15:23.817Z,10.13
2018-03-17T17:17:49.737Z,9.60
2018-03-17T17:20:15.600Z,10.03
2018-03-17T17:22:41.450Z,11.20
2018-03-17T17:25:07.349Z,7.23
2018-03-17T17:27:33.233Z,8.73
2018-03-17T17:29:59.160Z,8.13
2018-03-17T17:32:25.040Z,12.60
2018-03-17T17:34:50.923Z,9.60
2018-03-17T17:37:16.786Z,10.47
2018-03-17T17:39:42.698Z,8.80
2018-03-17T17:42:08.558Z,8.77
2018-03-17T17:44:34.412Z,10.33
2018-03-17T17:47:06.590Z,9.90
2018-03-17T17:49:32.452Z,8.93
2018-03-17T17:51:58.298Z,7.00
2018-03-17T17:54:24.244Z,9.53
2018-03-17T17:56:50.106Z,9.97
2018-03-17T17:59:15.961Z,7.70
2018-03-17T18:01:41.986Z,8.77
2018-03-17T18:04:07.825Z,7.43
2018-03-17T18:06:33.678Z,8.93
2018-03-17T18:08:59.657Z,9.53
2018-03-17T18:11:25.516Z,10.07
2018-03-17T18:13:51.486Z,7.73
2018-03-17T18:16:17.403Z,8.37
2018-03-17T18:18:43.329Z,7.40
2018-03-17T18:21:09.201Z,8.53
2018-03-17T18:23:35.128Z,9.67
2018-03-17T18:26:01.075Z,8.70
2018-03-17T18:28:26.957Z,6.53
2018-03-17T18:30:52.863Z,9.83
2018-03-17T18:33:18.723Z,6.47
2018-03-17T18:35:44.590Z,9.37
2018-03-17T18:38:10.482Z,12.10
2018-03-17T18:40:36.429Z,7.63
2018-03-17T18:43:02.304Z,9.70
2018-03-17T18:45:28.225Z,9.20
2018-03-17T18:47:54.074Z,9.07
2018-03-17T18:50:19.940Z,9.33
2018-03-17T18:52:45.841Z,7.53
2018-03-17T18:55:11.704Z,7.53
2018-03-17T18:57:37.553Z,14.17
2018-03-17T19:00:03.478Z,7.30
2018-03-17T19:02:29.401Z,7.80
2018-03-17T19:04:55.258Z,9.03
2018-03-17T19:07:21.166Z,8.53
2018-03-17T19:09:47.017Z,11.77
2018-03-17T19:12:12.888Z,8.83
2018-03-17T19:14:38.823Z,8.87
2018-03-17T19:17:04.674Z,9.57
2018-03-17T19:19:30.533Z,10.33
2018-03-17T19:21:56.416Z,7.63
2018-03-17T19:24:22.277Z,9.53
2018-03-17T19:26:48.248Z,8.17
2018-03-17T19:29:14.166Z,7.60
2018-03-17T19:31:40.008Z,8.20
2018-03-17T19:34:05.853Z,10.27
2018-03-17T19:36:31.746Z,6.57
2018-03-17T19:38:57.733Z,10.13
2018-03-17T19:41:23.596Z,11.30
2018-03-17T19:43:49.490Z,9.70
2018-03-17T19:46:15.373Z,9.07
2018-03-17T19:48:41.246Z,9.43
2018-03-17T19:51:07.780Z,8.60
2018-03-17T19:53:33.626Z,9.63
2018-03-17T19:55:59.501Z,9.27
2018-03-17T19:58:25.409Z,8.70
2018-03-17T20:00:51.270Z,8.40
2018-03-17T20:03:17.237Z,11.30
2018-03-17T20:05:43.449Z,10.03
2018-03-17T20:08:09.306Z,9.40
2018-03-17T20:10:35.166Z,10.77
2018-03-17T20:13:01.070Z,11.33
2018-03-17T20:15:27.029Z,11.00
2018-03-17T20:17:53.366Z,10.80
2018-03-17T20:20:19.263Z,8.97
2018-03-17T20:22:45.116Z,10.63
2018-03-17T20:25:11.324Z,9.80
2018-03-17T20:27:37.318Z,9.60
2018-03-17T20:30:03.546Z,11.23
2018-03-17T20:32:29.426Z,9.67
2018-03-17T20:34:55.346Z,6.97
2018-03-17T20:37:21.197Z,9.50
2018-03-17T20:39:47.139Z,11.07
2018-03-17T20:42:13.452Z,9.07
2018-03-17T20:44:39.301Z,11.20
2018-03-17T20:47:05.154Z,11.13
2018-03-17T20:49:31.041Z,10.17
2018-03-17T20:51:57.000Z,11.33
2018-03-17T20:54:22.841Z,11.70
2018-03-17T20:56:48.861Z,13.33
2018-03-17T20:59:14.708Z,8.20
2018-03-17T21:01:40.564Z,10.77
2018-03-17T21:04:06.566Z,10.53
2018-03-17T21:06:32.456Z,9.93
2018-03-17T21:08:58.693Z,11.33
2018-03-17T21:11:24.584Z,12.77
2018-03-17T21:13:50.608Z,9.93
2018-03-17T21:16:16.549Z,10.27
2018-03-17T21:18:42.445Z,8.87
2018-03-17T21:21:08.589Z,9.83
2018-03-17T21:23:34.541Z,13.20
2018-03-17T21:26:00.427Z,10.60
2018-03-17T21:28:26.370Z,8.97
2018-03-17T21:30:52.241Z,8.57
2018-03-17T21:33:18.201Z,11.20
2018-03-17T21:35:44.061Z,12.80
2018-03-17T21:38:09.905Z,10.57
2018-03-17T21:40:35.897Z,11.33
2018-03-17T21:43:01.762Z,10.50
2018-03-17T21:45:27.619Z,10.80
2018-03-17T21:47:53.509Z,10.43
2018-03-17T21:50:19.357Z,11.70
2018-03-17T21:52:46.234Z,10.87
2018-03-17T21:55:12.132Z,11.30
2018-03-17T21:57:37.985Z,12.57
2018-03-17T22:00:03.837Z,9.90
2018-03-17T22:02:29.752Z,12.07
2018-03-17T22:04:55.793Z,11.73
2018-03-17T22:07:21.640Z,13.07
2018-03-17T22:09:47.536Z,12.37
2018-03-17T22:12:13.396Z,9.83
2018-03-17T22:14:39.259Z,10.07
2018-03-17T22:17:05.261Z,12.87
2018-03-17T22:19:31.109Z,10.83
2018-03-17T22:21:56.952Z,12.43
2018-03-17T22:24:22.853Z,10.90
2018-03-17T22:26:48.705Z,10.17
2018-03-17T22:29:14.645Z,15.63
2018-03-17T22:31:40.566Z,12.93
2018-03-17T22:34:06.404Z,11.47
2018-03-17T22:36:32.248Z,13.13
2018-03-17T22:38:58.156Z,9.73
2018-03-17T22:41:24.104Z,11.47
2018-03-17T22:43:49.958Z,9.97
2018-03-17T22:46:16.149Z,9.87
2018-03-17T22:48:42.012Z,10.63
2018-03-17T22:51:07.862Z,12.33
2018-03-17T22:53:34.792Z,10.80
2018-03-17T22:56:00.665Z,12.23
2018-03-17T22:58:26.529Z,11.07
2018-03-17T23:00:52.424Z,12.57
2018-03-17T23:03:18.300Z,13.23
2018-03-17T23:05:44.250Z,10.13
2018-03-17T23:08:10.156Z,12.33
2018-03-17T23:10:36.004Z,9.63
2018-03-17T23:13:01.859Z,10.83
2018-03-17T23:15:27.765Z,11.13
2018-03-17T23:17:53.789Z,9.47
2018-03-17T23:20:19.646Z,15.90
2018-03-17T23:22:45.532Z,10.37
2018-03-17T23:25:11.394Z,9.10
2018-03-17T23:27:37.259Z,13.77
2018-03-17T23:30:03.290Z,11.63
2018-03-17T23:32:29.277Z,10.85
2018-03-17T23:34:55.104Z,12.93
2018-03-17T23:37:21.005Z,11.20
2018-03-17T23:39:46.864Z,10.00
2018-03-17T23:42:12.827Z,10.97
2018-03-17T23:44:38.758Z,9.47
2018-03-17T23:47:04.625Z,12.90
2018-03-17T23:49:30.497Z,12.40
2018-03-17T23:51:56.416Z,10.53
2018-03-17T23:54:22.388Z,11.97
2018-03-17T23:56:48.271Z,12.63
2018-03-17T23:59:14.194Z,11.20
